createdAt,value
2018-12-08T00:02:10.094Z,0.80
2018-12-08T00:04:39.432Z,3.70
2018-12-08T00:07:08.874Z,1.27
2018-12-08T00:09:38.214Z,1.50
2018-12-08T00:12:07.400Z,2.10
2018-12-08T00:14:36.964Z,1.87
2018-12-08T00:17:06.156Z,4.00
2018-12-08T00:19:35.511Z,1.97
2018-12-08T00:22:04.672Z,0.90
2018-12-08T00:24:34.204Z,2.23
2018-12-08T00:27:03.497Z,2.30
2018-12-08T00:29:32.993Z,1.07
2018-12-08T00:32:02.250Z,2.07
2018-12-08T00:34:31.742Z,3.20
2018-12-08T00:37:01.319Z,1.43
2018-12-08T00:39:30.821Z,6.93
2018-12-08T00:42:00.106Z,2.00
2018-12-08T00:44:29.618Z,2.53
2018-12-08T00:46:59.665Z,4.03
2018-12-08T00:49:29.388Z,4.47
2018-12-08T00:51:58.852Z,8.03
2018-12-08T00:54:28.248Z,3.70
2018-12-08T00:56:57.404Z,7.77
2018-12-08T00:59:26.700Z,7.03
2018-12-08T01:01:56.039Z,6.23
2018-12-08T01:04:25.348Z,7.50
2018-12-08T01:06:54.596Z,6.87
2018-12-08T01:09:23.796Z,5.13
2018-12-08T01:11:53.430Z,6.27
2018-12-08T01:14:22.559Z,7.40
2018-12-08T01:16:52.540Z,8.00
2018-12-08T01:19:21.909Z,6.63
2018-12-08T01:21:51.066Z,6.93
2018-12-08T01:24:20.106Z,10.37
2018-12-08T01:26:49.531Z,9.70
2018-12-08T01:29:19.293Z,6.57
2018-12-08T01:31:49.056Z,8.20
2018-12-08T01:34:18.143Z,9.97
2018-12-08T01:36:47.258Z,11.13
2018-12-08T01:39:16.588Z,8.30
2018-12-08T01:41:45.728Z,8.97
2018-12-08T01:44:15.107Z,14.60
2018-12-08T01:46:44.344Z,12.17
2018-12-08T01:49:13.472Z,12.67
2018-12-08T01:51:42.981Z,17.37
2018-12-08T01:54:12.476Z,11.03
2018-12-08T01:56:41.919Z,12.13
2018-12-08T01:59:11.142Z,11.13
2018-12-08T02:01:40.341Z,9.77
2018-12-08T02:04:09.499Z,14.03
2018-12-08T02:06:38.675Z,14.43
2018-12-08T02:09:08.383Z,17.00
2018-12-08T02:11:37.721Z,13.37
2018-12-08T02:14:06.969Z,11.20
2018-12-08T02:16:36.117Z,18.63
2018-12-08T02:19:06.085Z,12.43
2018-12-08T02:21:35.301Z,10.77
2018-12-08T02:24:04.441Z,13.83
2018-12-08T02:26:33.800Z,11.93
2018-12-08T02:29:03.052Z,11.40
2018-12-08T02:31:32.201Z,14.10
2018-12-08T02:34:01.603Z,19.23
2018-12-08T02:36:31.159Z,11.03
2018-12-08T02:39:00.446Z,22.13
2018-12-08T02:41:29.667Z,10.97
2018-12-08T02:43:59.050Z,11.43
2018-12-08T02:46:28.193Z,14.87
2018-12-08T02:48:57.551Z,17.17
2018-12-08T02:51:27.029Z,11.80
2018-12-08T02:53:56.164Z,11.13
2018-12-08T02:56:25.294Z,16.03
2018-12-08T02:58:54.404Z,14.80
2018-12-08T03:01:24.052Z,16.83
2018-12-08T03:03:53.433Z,20.23
2018-12-08T03:06:22.954Z,11.10
2018-12-08T03:08:52.918Z,12.73
2018-12-08T03:11:22.156Z,10.03
2018-12-08T03:13:51.788Z,14.60
2018-12-08T03:16:21.294Z,13.07
2018-12-08T03:18:51.630Z,10.53
2018-12-08T03:21:20.758Z,10.70
2018-12-08T03:23:49.999Z,20.90
2018-12-08T03:26:19.172Z,15.50
2018-12-08T03:28:48.859Z,13.80
2018-12-08T03:31:18.236Z,11.50
2018-12-08T03:33:47.713Z,14.20
2018-12-08T03:36:17.123Z,11.97
2018-12-08T03:38:46.485Z,11.93
2018-12-08T03:41:15.804Z,12.77
2018-12-08T03:43:45.237Z,12.17
2018-12-08T03:46:14.557Z,15.33
2018-12-08T03:48:43.926Z,10.10
2018-12-08T03:51:13.060Z,7.73
2018-12-08T03:53:42.743Z,10.73
2018-12-08T03:56:12.307Z,12.27
2018-12-08T03:58:41.613Z,22.60
2018-12-08T04:01:10.770Z,10.33
2018-12-08T04:03:40.378Z,14.33
2018-12-08T04:06:09.971Z,10.27
2018-12-08T04:08:39.204Z,11.60
2018-12-08T04:11:08.540Z,11.13
2018-12-08T04:13:37.862Z,13.07
2018-12-08T04:16:07.087Z,8.47
2018-12-08T04:18:36.493Z,12.17
2018-12-08T04:21:06.162Z,9.17
2018-12-08T04:23:35.316Z,12.93
2018-12-08T04:26:05.314Z,14.33
2018-12-08T04:28:35.043Z,11.40
2018-12-08T04:31:04.791Z,11.50
2018-12-08T04:33:34.239Z,15.27
2018-12-08T04:36:03.407Z,16.30
2018-12-08T04:38:32.660Z,11.33
2018-12-08T04:41:02.142Z,10.07
2018-12-08T04:43:31.690Z,7.80
2018-12-08T04:46:00.912Z,12.83
2018-12-08T04:48:30.255Z,12.97
2018-12-08T04:50:59.440Z,9.73
2018-12-08T04:53:28.935Z,11.20
2018-12-08T04:55:58.047Z,10.03
2018-12-08T04:58:27.227Z,16.03
2018-12-08T05:00:56.659Z,11.20
2018-12-08T05:03:25.776Z,10.30
2018-12-08T05:05:55.355Z,12.93
2018-12-08T05:08:24.807Z,9.80
2018-12-08T05:10:54.259Z,13.43
2018-12-08T05:13:23.751Z,7.27
2018-12-08T05:15:53.108Z,6.80
2018-12-08T05:18:22.239Z,8.77
2018-12-08T05:20:51.460Z,12.23
2018-12-08T05:23:20.560Z,11.37
2018-12-08T05:25:49.683Z,10.93
2018-12-08T05:28:19.116Z,13.90
2018-12-08T05:30:48.242Z,9.40
2018-12-08T05:33:18.168Z,8.47
2018-12-08T05:35:47.332Z,9.20
2018-12-08T05:38:16.864Z,7.53
2018-12-08T05:40:45.941Z,12.47
2018-12-08T05:43:15.060Z,9.57
2018-12-08T05:45:44.479Z,8.17
2018-12-08T05:48:13.695Z,9.27
2018-12-08T05:50:43.124Z,9.63
2018-12-08T05:53:12.247Z,7.00
2018-12-08T05:55:41.366Z,10.83
2018-12-08T05:58:10.513Z,6.27
2018-12-08T06:00:40.255Z,11.87
2018-12-08T06:03:11.352Z,12.50
2018-12-08T06:05:40.630Z,8.27
2018-12-08T06:08:09.980Z,10.67
2018-12-08T06:10:39.429Z,10.17
2018-12-08T06:13:08.544Z,10.20
2018-12-08T06:15:38.099Z,9.30
2018-12-08T06:18:07.946Z,9.07
2018-12-08T06:20:37.137Z,9.67
2018-12-08T06:23:06.799Z,10.37
2018-12-08T06:25:38.719Z,7.07
2018-12-08T06:28:25.625Z,11.07
2018-12-08T06:30:55.655Z,9.23
2018-12-08T06:33:25.019Z,8.77
2018-12-08T06:35:54.099Z,6.30
2018-12-08T06:38:25.349Z,8.40
2018-12-08T06:40:54.622Z,10.03
2018-12-08T06:43:23.740Z,6.70
2018-12-08T06:45:53.304Z,7.97
2018-12-08T06:48:22.629Z,7.27
2018-12-08T06:50:51.781Z,7.20
2018-12-08T06:53:21.131Z,7.67
2018-12-08T06:55:50.251Z,9.50
2018-12-08T06:58:19.803Z,11.63
2018-12-08T07:00:49.131Z,5.80
2018-12-08T07:03:18.706Z,6.37
2018-12-08T07:05:48.252Z,9.27
2018-12-08T07:08:17.774Z,9.57
2018-12-08T07:10:46.905Z,10.53
2018-12-08T07:13:16.194Z,7.47
2018-12-08T07:15:45.344Z,8.60
2018-12-08T07:18:14.420Z,6.70
2018-12-08T07:20:43.823Z,7.33
2018-12-08T07:23:13.264Z,7.57
2018-12-08T07:25:42.635Z,9.33
2018-12-08T07:28:12.044Z,8.93
2018-12-08T07:30:41.129Z,6.30
2018-12-08T07:33:10.636Z,6.43
2018-12-08T07:35:39.921Z,4.90
2018-12-08T07:38:09.065Z,6.23
2018-12-08T07:40:38.193Z,7.33
2018-12-08T07:43:07.407Z,8.87
2018-12-08T07:45:36.514Z,9.77
2018-12-08T07:48:05.615Z,5.80
2018-12-08T07:50:34.699Z,5.90
2018-12-08T07:53:04.482Z,7.13
2018-12-08T07:58:12.962Z,5.10
2018-12-08T08:00:42.293Z,7.17
2018-12-08T08:03:11.582Z,6.50
2018-12-08T08:05:40.720Z,6.40
2018-12-08T08:08:10.279Z,3.93
2018-12-08T08:10:39.736Z,7.83
2018-12-08T08:13:09.440Z,6.03
2018-12-08T08:15:39.006Z,9.30
2018-12-08T08:18:08.315Z,5.83
2018-12-08T08:20:37.431Z,5.23
2018-12-08T08:23:06.988Z,5.33
2018-12-08T08:25:36.131Z,6.03
2018-12-08T08:28:05.203Z,4.40
2018-12-08T08:30:34.599Z,7.93
2018-12-08T08:33:03.752Z,4.10
2018-12-08T08:35:33.079Z,7.37
2018-12-08T08:38:02.328Z,5.43
2018-12-08T08:40:31.542Z,3.80
2018-12-08T08:43:00.717Z,4.20
2018-12-08T08:45:29.991Z,6.00
2018-12-08T08:47:59.194Z,3.43
2018-12-08T08:50:28.664Z,4.97
2018-12-08T08:52:57.769Z,4.30
2018-12-08T08:55:26.926Z,5.63
2018-12-08T08:57:56.277Z,7.57
2018-12-08T09:00:25.348Z,4.67
2018-12-08T09:02:54.896Z,6.40
2018-12-08T09:05:24.142Z,5.77
2018-12-08T09:07:53.685Z,3.90
2018-12-08T09:10:22.832Z,5.23
2018-12-08T09:12:52.005Z,6.80
2018-12-08T09:15:21.627Z,4.83
2018-12-08T09:17:50.763Z,6.47
2018-12-08T09:20:19.950Z,5.10
2018-12-08T09:22:49.266Z,5.47
2018-12-08T09:25:18.387Z,4.07
2018-12-08T09:27:49.176Z,5.57
2018-12-08T09:30:18.954Z,2.97
2018-12-08T09:32:48.283Z,5.90
2018-12-08T09:35:17.565Z,5.27
2018-12-08T09:37:46.882Z,6.73
2018-12-08T09:40:16.108Z,5.57
2018-12-08T09:42:45.616Z,7.00
2018-12-08T09:45:14.985Z,7.13
2018-12-08T09:47:44.362Z,4.23
2018-12-08T09:50:13.536Z,4.27
2018-12-08T09:52:43.045Z,6.77
2018-12-08T09:55:12.131Z,3.63
2018-12-08T09:57:41.600Z,4.80
2018-12-08T10:00:10.795Z,6.83
2018-12-08T10:02:39.996Z,4.53
2018-12-08T10:05:09.183Z,5.90
2018-12-08T10:07:38.611Z,5.97
2018-12-08T10:10:10.788Z,4.83
2018-12-08T10:12:40.205Z,5.13
2018-12-08T10:15:09.601Z,4.77
2018-12-08T10:17:38.761Z,5.00
2018-12-08T10:20:08.215Z,6.40
2018-12-08T10:22:37.564Z,3.23
2018-12-08T10:25:07.400Z,3.27
2018-12-08T10:27:36.697Z,3.90
2018-12-08T10:30:07.546Z,4.53
2018-12-08T10:32:36.676Z,4.77
2018-12-08T10:35:10.339Z,3.77
2018-12-08T10:37:40.342Z,4.33
2018-12-08T10:40:11.204Z,3.87
2018-12-08T10:42:40.323Z,2.83
2018-12-08T10:45:10.074Z,2.63
2018-12-08T10:47:39.946Z,3.97
2018-12-08T10:50:11.470Z,3.40
2018-12-08T10:52:40.647Z,3.87
2018-12-08T10:55:10.712Z,3.17
2018-12-08T10:57:39.892Z,4.57
2018-12-08T11:03:02.552Z,4.93
2018-12-08T11:05:31.656Z,4.27
2018-12-08T11:08:01.036Z,3.53
2018-12-08T11:10:30.351Z,4.37
2018-12-08T11:12:59.537Z,4.87
2018-12-08T11:15:28.891Z,4.67
2018-12-08T11:17:58.252Z,4.40
2018-12-08T11:20:27.493Z,3.27
2018-12-08T11:22:56.604Z,4.10
2018-12-08T11:25:26.183Z,2.73
2018-12-08T11:27:55.418Z,5.33
2018-12-08T11:30:24.901Z,3.77
2018-12-08T11:32:54.328Z,5.17
2018-12-08T11:35:23.603Z,4.73
2018-12-08T11:37:52.814Z,3.47
2018-12-08T11:40:22.383Z,3.53
2018-12-08T11:42:51.805Z,3.13
2018-12-08T11:45:21.181Z,3.90
2018-12-08T11:47:51.048Z,3.63
2018-12-08T11:50:20.587Z,3.27
2018-12-08T11:53:09.773Z,3.57
2018-12-08T11:55:39.562Z,2.90
2018-12-08T11:58:11.635Z,4.97
2018-12-08T12:03:31.208Z,3.60
2018-12-08T12:06:00.831Z,3.07
2018-12-08T12:08:30.225Z,2.93
2018-12-08T12:10:59.899Z,2.53
2018-12-08T12:13:42.584Z,2.20
2018-12-08T12:16:12.405Z,5.67
2018-12-08T12:22:01.858Z,1.90
2018-12-08T12:24:45.531Z,4.53
2018-12-08T12:27:15.125Z,1.97
2018-12-08T12:29:44.889Z,3.40
2018-12-08T12:32:16.500Z,3.53
2018-12-08T12:35:33.613Z,4.40
2018-12-08T12:38:03.017Z,3.50
2018-12-08T12:40:32.325Z,2.13
2018-12-08T12:43:01.520Z,1.50
2018-12-08T12:45:30.836Z,1.80
2018-12-08T12:48:02.056Z,4.57
2018-12-08T12:50:31.544Z,3.47
2018-12-08T12:53:02.536Z,1.47
2018-12-08T12:55:32.807Z,2.03
2018-12-08T12:58:02.997Z,2.00
2018-12-08T13:00:32.151Z,4.80
2018-12-08T13:10:00.855Z,3.53
2018-12-08T13:12:30.388Z,1.53
2018-12-08T13:14:59.849Z,4.33
2018-12-08T13:17:29.830Z,2.57
2018-12-08T13:19:59.240Z,1.97
2018-12-08T13:22:29.146Z,3.60
2018-12-08T13:25:14.730Z,18.13
2018-12-08T13:27:44.361Z,1.40
2018-12-08T13:30:16.156Z,2.23
2018-12-08T13:32:45.748Z,4.40
2018-12-08T13:35:32.004Z,2.80
2018-12-08T13:38:01.683Z,40.37
2018-12-08T13:40:30.780Z,91.63
2018-12-08T13:43:00.361Z,35.13
2018-12-08T13:48:14.043Z,2.73
2018-12-08T13:50:44.159Z,4.27
2018-12-08T13:53:13.985Z,2.80
2018-12-08T13:55:43.224Z,5.33
2018-12-08T13:58:12.642Z,5.40
2018-12-08T14:00:42.697Z,3.20
2018-12-08T14:03:12.291Z,2.33
2018-12-08T14:05:42.868Z,3.93
2018-12-08T14:08:12.201Z,3.23
2018-12-08T14:10:41.731Z,4.53
2018-12-08T14:13:11.143Z,2.83
2018-12-08T14:15:40.392Z,2.30
2018-12-08T14:18:10.067Z,3.40
2018-12-08T14:20:39.254Z,2.57
2018-12-08T14:23:08.753Z,9.53
2018-12-08T14:25:37.956Z,5.63
2018-12-08T14:28:07.734Z,4.63
2018-12-08T14:30:36.976Z,2.80
2018-12-08T14:33:06.148Z,2.70
2018-12-08T14:35:35.256Z,4.23
2018-12-08T14:38:04.594Z,3.03
2018-12-08T14:40:34.106Z,3.10
2018-12-08T14:43:03.477Z,4.47
2018-12-08T14:45:34.190Z,3.17
2018-12-08T14:48:03.420Z,5.03
2018-12-08T14:50:32.945Z,4.90
2018-12-08T14:53:02.383Z,5.03
2018-12-08T14:55:34.999Z,5.60
2018-12-08T14:58:04.328Z,4.57
2018-12-08T15:00:33.900Z,6.03
2018-12-08T15:03:11.319Z,4.23
2018-12-08T15:05:40.553Z,4.97
2018-12-08T15:08:09.956Z,2.53
2018-12-08T15:10:54.119Z,3.30
2018-12-08T15:13:23.501Z,3.20
2018-12-08T15:15:53.755Z,3.60
2018-12-08T15:18:23.292Z,2.63
2018-12-08T15:20:52.888Z,3.13
2018-12-08T15:23:22.023Z,3.03
2018-12-08T15:25:51.292Z,3.40
2018-12-08T15:28:20.447Z,5.00
2018-12-08T15:30:49.707Z,2.60
2018-12-08T15:33:19.276Z,2.87
2018-12-08T15:35:48.704Z,4.27
2018-12-08T15:38:17.917Z,3.00
2018-12-08T15:40:47.764Z,3.77
2018-12-08T15:43:17.226Z,3.00
2018-12-08T15:45:46.444Z,3.53
2018-12-08T15:48:15.746Z,3.50
2018-12-08T15:50:45.222Z,3.07
2018-12-08T15:53:14.635Z,3.47
2018-12-08T15:55:43.789Z,3.77
2018-12-08T15:58:15.735Z,3.73
2018-12-08T16:00:45.003Z,2.90
2018-12-08T16:03:14.125Z,2.57
2018-12-08T16:05:43.777Z,3.67
2018-12-08T16:08:13.287Z,3.50
2018-12-08T16:10:42.583Z,3.37
2018-12-08T16:13:14.595Z,2.50
2018-12-08T16:15:44.120Z,2.90
2018-12-08T16:18:13.672Z,1.97
2018-12-08T16:20:43.068Z,3.90
2018-12-08T16:23:12.551Z,3.67
2018-12-08T16:25:42.090Z,2.30
2018-12-08T16:28:11.383Z,2.53
2018-12-08T16:30:40.513Z,2.33
2018-12-08T16:33:09.690Z,3.93
2018-12-08T16:35:39.203Z,1.97
2018-12-08T16:38:08.499Z,2.67
2018-12-08T16:40:39.076Z,2.10
2018-12-08T16:43:08.169Z,2.53
2018-12-08T16:45:37.323Z,4.70
2018-12-08T16:48:06.434Z,2.33
2018-12-08T16:50:35.757Z,3.93
2018-12-08T16:53:05.251Z,5.00
2018-12-08T16:55:35.079Z,2.37
2018-12-08T16:58:04.263Z,2.77
2018-12-08T17:00:33.660Z,3.37
2018-12-08T17:03:04.192Z,2.43
2018-12-08T17:05:34.087Z,3.17
2018-12-08T17:08:05.404Z,2.30
2018-12-08T17:10:34.536Z,1.43
2018-12-08T17:13:03.994Z,3.30
2018-12-08T17:15:33.377Z,2.73
2018-12-08T17:18:02.810Z,2.70
2018-12-08T17:20:32.627Z,2.50
2018-12-08T17:23:01.812Z,2.40
2018-12-08T17:25:30.969Z,3.63
2018-12-08T17:28:00.416Z,2.10
2018-12-08T17:30:29.974Z,2.27
2018-12-08T17:32:59.380Z,2.77
2018-12-08T17:35:28.577Z,3.50
2018-12-08T17:37:59.000Z,2.13
2018-12-08T17:40:28.191Z,7.33
2018-12-08T17:42:57.889Z,4.00
2018-12-08T17:45:27.211Z,2.87
2018-12-08T17:47:56.613Z,2.83
2018-12-08T17:50:26.193Z,3.13
2018-12-08T17:52:55.324Z,4.17
2018-12-08T17:55:24.633Z,2.27
2018-12-08T17:57:54.057Z,5.53
2018-12-08T18:00:23.238Z,2.70
2018-12-08T18:02:53.583Z,3.60
2018-12-08T18:05:22.804Z,3.50
2018-12-08T18:07:51.857Z,6.77
2018-12-08T18:10:21.471Z,12.43
2018-12-08T18:12:50.679Z,6.83
2018-12-08T18:15:19.938Z,4.27
2018-12-08T18:17:49.142Z,3.60
2018-12-08T18:20:18.401Z,4.77
2018-12-08T18:22:47.733Z,3.63
2018-12-08T18:25:19.120Z,4.23
2018-12-08T18:27:48.781Z,9.40
2018-12-08T18:30:18.263Z,8.33
2018-12-08T18:32:50.596Z,5.13
2018-12-08T18:35:19.683Z,8.03
2018-12-08T18:37:51.947Z,4.43
2018-12-08T18:40:21.469Z,7.03
2018-12-08T18:42:50.781Z,6.97
2018-12-08T18:45:20.225Z,6.50
2018-12-08T18:47:49.536Z,6.67
2018-12-08T18:50:27.710Z,3.83
2018-12-08T18:52:56.994Z,4.17
2018-12-08T18:55:26.266Z,6.23
2018-12-08T18:57:56.072Z,6.53
2018-12-08T19:00:25.457Z,12.20
2018-12-08T19:02:55.855Z,6.93
2018-12-08T19:05:25.464Z,6.07
2018-12-08T19:07:55.051Z,3.57
2018-12-08T19:10:24.983Z,6.97
2018-12-08T19:12:54.489Z,4.97
2018-12-08T19:15:23.707Z,4.73
2018-12-08T19:17:52.976Z,9.83
2018-12-08T19:20:22.138Z,2.90
2018-12-08T19:22:51.576Z,4.30
2018-12-08T19:25:20.743Z,7.07
2018-12-08T19:27:52.060Z,6.43
2018-12-08T19:30:22.123Z,6.13
2018-12-08T19:32:53.206Z,7.33
2018-12-08T19:35:24.776Z,5.40
2018-12-08T19:37:54.585Z,5.97
2018-12-08T19:40:23.765Z,6.33
2018-12-08T19:42:53.703Z,27.03
2018-12-08T19:45:23.345Z,8.97
2018-12-08T19:47:52.780Z,17.93
2018-12-08T19:50:21.956Z,13.00
2018-12-08T19:52:51.384Z,14.70
2018-12-08T19:55:21.380Z,6.77
2018-12-08T19:57:51.888Z,13.77
2018-12-08T20:00:21.408Z,19.67
2018-12-08T20:02:51.938Z,8.97
2018-12-08T20:05:21.652Z,8.37
2018-12-08T20:07:50.801Z,5.83
2018-12-08T20:10:20.722Z,3.93
2018-12-08T20:13:55.492Z,4.57
2018-12-08T20:16:24.801Z,4.73
2018-12-08T20:18:54.200Z,5.90
2018-12-08T20:21:23.630Z,7.73
2018-12-08T20:23:53.979Z,8.23
2018-12-08T20:26:23.347Z,5.90
2018-12-08T20:28:54.067Z,8.40
2018-12-08T20:31:25.552Z,15.43
2018-12-08T20:33:54.819Z,8.07
2018-12-08T20:36:24.379Z,4.60
2018-12-08T20:38:53.839Z,11.47
2018-12-08T20:41:23.502Z,24.13
2018-12-08T20:43:52.763Z,12.60
2018-12-08T20:46:23.337Z,12.47
2018-12-08T20:48:52.595Z,8.43
2018-12-08T20:51:23.000Z,9.40
2018-12-08T20:53:54.556Z,7.50
2018-12-08T20:59:03.471Z,12.03
2018-12-08T21:01:36.548Z,7.20
2018-12-08T21:06:44.301Z,7.40
2018-12-08T21:09:16.540Z,9.73
2018-12-08T21:11:45.872Z,6.30
2018-12-08T21:14:16.733Z,7.00
2018-12-08T21:16:46.176Z,5.53
2018-12-08T21:19:16.606Z,6.20
2018-12-08T21:21:50.938Z,7.40
2018-12-08T21:24:20.489Z,4.83
2018-12-08T21:26:51.230Z,9.53
2018-12-08T21:29:20.492Z,5.07
2018-12-08T21:31:50.900Z,6.77
2018-12-08T21:34:20.396Z,11.23
2018-12-08T21:36:49.725Z,9.27
2018-12-08T21:39:18.938Z,9.47
2018-12-08T21:41:48.542Z,9.60
2018-12-08T21:44:18.355Z,7.33
2018-12-08T21:46:51.402Z,12.07
2018-12-08T21:49:21.184Z,9.63
2018-12-08T21:51:53.120Z,10.37
2018-12-08T21:54:22.692Z,9.00
2018-12-08T21:56:52.278Z,9.80
2018-12-08T21:59:21.427Z,7.40
2018-12-08T22:01:50.757Z,12.27
2018-12-08T22:04:20.225Z,8.87
2018-12-08T22:06:49.511Z,9.17
2018-12-08T22:09:19.200Z,16.40
2018-12-08T22:11:49.867Z,14.37
2018-12-08T22:17:01.829Z,8.33
2018-12-08T22:19:33.168Z,9.27
2018-12-08T22:22:02.887Z,6.90
2018-12-08T22:24:33.580Z,19.00
2018-12-08T22:27:02.816Z,13.97
2018-12-08T22:29:33.449Z,12.37
2018-12-08T22:32:03.322Z,11.93
2018-12-08T22:34:34.740Z,13.67
2018-12-08T22:37:04.824Z,11.77
2018-12-08T22:39:35.533Z,11.00
2018-12-08T22:42:05.397Z,12.13
2018-12-08T22:44:36.760Z,14.27
2018-12-08T22:47:07.462Z,13.87
2018-12-08T22:49:37.410Z,10.70
2018-12-08T22:52:07.638Z,17.83
2018-12-08T22:54:38.237Z,14.23
2018-12-08T22:57:07.870Z,13.43
2018-12-08T22:59:38.314Z,15.70
2018-12-08T23:02:08.572Z,10.77
2018-12-08T23:04:38.300Z,15.87
2018-12-08T23:07:08.065Z,7.60
2018-12-08T23:09:37.721Z,16.43
2018-12-08T23:12:07.084Z,13.33
2018-12-08T23:14:36.683Z,13.00
2018-12-08T23:17:06.058Z,16.53
2018-12-08T23:19:35.400Z,13.47
2018-12-08T23:22:04.854Z,14.27
2018-12-08T23:24:34.404Z,13.87
2018-12-08T23:27:04.445Z,11.73
2018-12-08T23:29:34.459Z,17.30
2018-12-08T23:32:04.897Z,12.00
2018-12-08T23:34:34.130Z,10.70
2018-12-08T23:37:03.851Z,12.30
2018-12-08T23:39:38.861Z,12.43
2018-12-08T23:42:05.172Z,10.80
2018-12-08T23:44:35.068Z,13.97
2018-12-08T23:47:04.619Z,19.50
2018-12-08T23:49:33.890Z,13.43
2018-12-08T23:52:03.323Z,19.00
2018-12-08T23:54:32.475Z,11.87
2018-12-08T23:57:01.779Z,20.53
2018-12-08T23:59:32.004Z,10.77
